sensor_id;sensor_type;location;lat;lon;timestamp;temperature;humidity
24011;DHT22;12217;50.792;4.372;2022-08-18T00:00:42;21.30;99.90
24011;DHT22;12217;50.792;4.372;2022-08-18T00:03:09;21.30;99.90
24011;DHT22;12217;50.792;4.372;2022-08-18T00:05:36;21.30;99.90
24011;DHT22;12217;50.792;4.372;2022-08-18T00:08:03;21.30;99.90
24011;DHT22;12217;50.792;4.372;2022-08-18T00:10:30;21.30;99.90
24011;DHT22;12217;50.792;4.372;2022-08-18T00:12:56;21.30;99.90
24011;DHT22;12217;50.792;4.372;2022-08-18T00:15:21;21.30;99.90
24011;DHT22;12217;50.792;4.372;2022-08-18T00:17:47;21.20;99.90
24011;DHT22;12217;50.792;4.372;2022-08-18T00:20:21;21.20;99.90
24011;DHT22;12217;50.792;4.372;2022-08-18T00:22:48;21.30;99.90
24011;DHT22;12217;50.792;4.372;2022-08-18T00:25:15;21.30;99.90
24011;DHT22;12217;50.792;4.372;2022-08-18T00:27:41;21.20;99.90
24011;DHT22;12217;50.792;4.372;2022-08-18T00:30:11;21.20;99.90
24011;DHT22;12217;50.792;4.372;2022-08-18T00:32:40;21.20;99.90
24011;DHT22;12217;50.792;4.372;2022-08-18T00:35:11;21.20;99.90
24011;DHT22;12217;50.792;4.372;2022-08-18T00:37:39;21.20;99.90
24011;DHT22;12217;50.792;4.372;2022-08-18T00:40:06;21.20;99.90
24011;DHT22;12217;50.792;4.372;2022-08-18T00:42:32;21.20;99.90
24011;DHT22;12217;50.792;4.372;2022-08-18T00:45:01;21.00;99.90
24011;DHT22;12217;50.792;4.372;2022-08-18T00:47:27;21.00;99.90
24011;DHT22;12217;50.792;4.372;2022-08-18T00:49:54;21.00;99.90
24011;DHT22;12217;50.792;4.372;2022-08-18T00:52:21;21.00;99.90
24011;DHT22;12217;50.792;4.372;2022-08-18T00:54:48;21.10;99.90
24011;DHT22;12217;50.792;4.372;2022-08-18T00:57:17;21.10;99.90
24011;DHT22;12217;50.792;4.372;2022-08-18T01:00:06;21.00;99.90
24011;DHT22;12217;50.792;4.372;2022-08-18T01:02:52;20.90;99.90
24011;DHT22;12217;50.792;4.372;2022-08-18T01:05:28;20.90;99.90
24011;DHT22;12217;50.792;4.372;2022-08-18T01:07:58;20.80;99.90
24011;DHT22;12217;50.792;4.372;2022-08-18T01:10:24;20.70;99.90
24011;DHT22;12217;50.792;4.372;2022-08-18T01:12:52;20.50;99.90
24011;DHT22;12217;50.792;4.372;2022-08-18T01:15:20;20.60;99.90
24011;DHT22;12217;50.792;4.372;2022-08-18T01:17:46;20.60;99.90
24011;DHT22;12217;50.792;4.372;2022-08-18T01:21:04;20.60;99.90
24011;DHT22;12217;50.792;4.372;2022-08-18T01:23:52;20.70;99.90
24011;DHT22;12217;50.792;4.372;2022-08-18T01:26:19;20.80;99.90
24011;DHT22;12217;50.792;4.372;2022-08-18T01:28:47;20.80;99.90
24011;DHT22;12217;50.792;4.372;2022-08-18T01:31:39;20.70;99.90
24011;DHT22;12217;50.792;4.372;2022-08-18T01:34:06;20.70;99.90
24011;DHT22;12217;50.792;4.372;2022-08-18T01:36:33;20.70;99.90
24011;DHT22;12217;50.792;4.372;2022-08-18T01:39:06;20.60;99.90
24011;DHT22;12217;50.792;4.372;2022-08-18T01:41:33;20.50;99.90
24011;DHT22;12217;50.792;4.372;2022-08-18T01:44:00;20.60;99.90
24011;DHT22;12217;50.792;4.372;2022-08-18T01:46:31;20.60;99.90
24011;DHT22;12217;50.792;4.372;2022-08-18T01:48:58;20.60;99.90
24011;DHT22;12217;50.792;4.372;2022-08-18T01:51:26;20.70;99.90
24011;DHT22;12217;50.792;4.372;2022-08-18T01:53:52;20.70;99.90
24011;DHT22;12217;50.792;4.372;2022-08-18T01:56:18;20.70;99.90
24011;DHT22;12217;50.792;4.372;2022-08-18T01:58:44;20.70;99.90
24011;DHT22;12217;50.792;4.372;2022-08-18T02:01:15;20.70;99.90
24011;DHT22;12217;50.792;4.372;2022-08-18T02:03:46;20.80;99.90
24011;DHT22;12217;50.792;4.372;2022-08-18T02:06:16;20.80;99.90
24011;DHT22;12217;50.792;4.372;2022-08-18T02:08:44;20.80;99.90
24011;DHT22;12217;50.792;4.372;2022-08-18T02:11:10;21.00;99.90
24011;DHT22;12217;50.792;4.372;2022-08-18T02:13:36;21.00;99.90
24011;DHT22;12217;50.792;4.372;2022-08-18T02:16:02;20.90;99.90
24011;DHT22;12217;50.792;4.372;2022-08-18T02:18:31;21.10;99.90
24011;DHT22;12217;50.792;4.372;2022-08-18T02:21:04;21.10;99.90
24011;DHT22;12217;50.792;4.372;2022-08-18T02:23:30;21.10;99.90
24011;DHT22;12217;50.792;4.372;2022-08-18T02:25:56;21.20;99.90
24011;DHT22;12217;50.792;4.372;2022-08-18T02:28:21;21.10;99.90
24011;DHT22;12217;50.792;4.372;2022-08-18T02:30:47;21.10;99.90
24011;DHT22;12217;50.792;4.372;2022-08-18T02:33:13;21.00;99.90
24011;DHT22;12217;50.792;4.372;2022-08-18T02:35:39;20.90;99.90
24011;DHT22;12217;50.792;4.372;2022-08-18T02:38:06;20.80;99.90
24011;DHT22;12217;50.792;4.372;2022-08-18T02:40:34;20.80;99.90
24011;DHT22;12217;50.792;4.372;2022-08-18T02:43:07;20.80;99.90
24011;DHT22;12217;50.792;4.372;2022-08-18T02:45:37;20.70;99.90
24011;DHT22;12217;50.792;4.372;2022-08-18T02:48:05;20.70;99.90
24011;DHT22;12217;50.792;4.372;2022-08-18T02:50:31;20.70;99.90
24011;DHT22;12217;50.792;4.372;2022-08-18T02:52:57;20.80;99.90
24011;DHT22;12217;50.792;4.372;2022-08-18T02:55:23;20.80;99.90
24011;DHT22;12217;50.792;4.372;2022-08-18T02:57:51;20.80;99.90
24011;DHT22;12217;50.792;4.372;2022-08-18T03:00:17;20.80;99.90
24011;DHT22;12217;50.792;4.372;2022-08-18T03:02:47;20.80;99.90
24011;DHT22;12217;50.792;4.372;2022-08-18T03:05:13;20.70;99.90
24011;DHT22;12217;50.792;4.372;2022-08-18T03:07:39;20.80;99.90
24011;DHT22;12217;50.792;4.372;2022-08-18T03:10:05;20.80;99.90
24011;DHT22;12217;50.792;4.372;2022-08-18T03:12:31;20.90;99.90
24011;DHT22;12217;50.792;4.372;2022-08-18T03:14:57;20.90;99.90
24011;DHT22;12217;50.792;4.372;2022-08-18T03:17:22;21.00;99.90
24011;DHT22;12217;50.792;4.372;2022-08-18T03:19:48;21.00;99.90
24011;DHT22;12217;50.792;4.372;2022-08-18T03:22:14;21.00;99.90
24011;DHT22;12217;50.792;4.372;2022-08-18T03:24:39;21.00;99.90
24011;DHT22;12217;50.792;4.372;2022-08-18T03:27:06;21.10;99.90
24011;DHT22;12217;50.792;4.372;2022-08-18T03:29:33;20.90;99.90
24011;DHT22;12217;50.792;4.372;2022-08-18T03:32:00;20.80;99.90
24011;DHT22;12217;50.792;4.372;2022-08-18T03:34:27;20.70;99.90
24011;DHT22;12217;50.792;4.372;2022-08-18T03:36:53;20.80;99.90
24011;DHT22;12217;50.792;4.372;2022-08-18T03:39:19;20.80;99.90
24011;DHT22;12217;50.792;4.372;2022-08-18T03:41:49;20.90;99.90
24011;DHT22;12217;50.792;4.372;2022-08-18T03:44:17;20.80;99.90
24011;DHT22;12217;50.792;4.372;2022-08-18T03:46:44;20.80;99.90
24011;DHT22;12217;50.792;4.372;2022-08-18T03:49:10;20.90;99.90
24011;DHT22;12217;50.792;4.372;2022-08-18T03:51:36;20.80;99.90
24011;DHT22;12217;50.792;4.372;2022-08-18T03:54:04;20.90;99.90
24011;DHT22;12217;50.792;4.372;2022-08-18T03:56:33;20.90;99.90
24011;DHT22;12217;50.792;4.372;2022-08-18T03:59:05;21.00;99.90
24011;DHT22;12217;50.792;4.372;2022-08-18T04:01:34;21.10;99.90
24011;DHT22;12217;50.792;4.372;2022-08-18T04:04:03;21.10;99.90
24011;DHT22;12217;50.792;4.372;2022-08-18T04:06:31;21.20;99.90
24011;DHT22;12217;50.792;4.372;2022-08-18T04:08:59;21.10;99.90
24011;DHT22;12217;50.792;4.372;2022-08-18T04:11:25;21.10;99.90
24011;DHT22;12217;50.792;4.372;2022-08-18T04:13:54;21.10;99.90
24011;DHT22;12217;50.792;4.372;2022-08-18T04:16:23;21.20;99.90
24011;DHT22;12217;50.792;4.372;2022-08-18T04:18:49;21.20;99.90
24011;DHT22;12217;50.792;4.372;2022-08-18T04:21:15;21.20;99.90
24011;DHT22;12217;50.792;4.372;2022-08-18T04:23:41;21.20;99.90
24011;DHT22;12217;50.792;4.372;2022-08-18T04:26:08;21.10;99.90
24011;DHT22;12217;50.792;4.372;2022-08-18T04:28:35;21.10;99.90
24011;DHT22;12217;50.792;4.372;2022-08-18T04:31:10;21.20;99.90
24011;DHT22;12217;50.792;4.372;2022-08-18T04:33:36;21.20;99.90
24011;DHT22;12217;50.792;4.372;2022-08-18T04:36:10;21.10;99.90
24011;DHT22;12217;50.792;4.372;2022-08-18T04:38:36;21.00;99.90
24011;DHT22;12217;50.792;4.372;2022-08-18T04:41:02;21.00;99.90
24011;DHT22;12217;50.792;4.372;2022-08-18T04:43:28;21.10;99.90
24011;DHT22;12217;50.792;4.372;2022-08-18T04:45:55;21.00;99.90
24011;DHT22;12217;50.792;4.372;2022-08-18T04:48:37;21.10;99.90
24011;DHT22;12217;50.792;4.372;2022-08-18T04:51:06;21.00;99.90
24011;DHT22;12217;50.792;4.372;2022-08-18T04:53:33;21.10;99.90
24011;DHT22;12217;50.792;4.372;2022-08-18T04:56:21;21.00;99.90
24011;DHT22;12217;50.792;4.372;2022-08-18T04:59:04;20.80;99.90
24011;DHT22;12217;50.792;4.372;2022-08-18T05:01:35;20.80;99.90
24011;DHT22;12217;50.792;4.372;2022-08-18T05:04:01;20.80;99.90
24011;DHT22;12217;50.792;4.372;2022-08-18T05:06:28;20.60;99.90
24011;DHT22;12217;50.792;4.372;2022-08-18T05:08:57;20.70;99.90
24011;DHT22;12217;50.792;4.372;2022-08-18T05:11:25;20.70;99.90
24011;DHT22;12217;50.792;4.372;2022-08-18T05:13:55;20.70;99.90
24011;DHT22;12217;50.792;4.372;2022-08-18T05:16:23;20.70;99.90
24011;DHT22;12217;50.792;4.372;2022-08-18T05:18:50;20.50;99.90
24011;DHT22;12217;50.792;4.372;2022-08-18T05:21:18;20.50;99.90
24011;DHT22;12217;50.792;4.372;2022-08-18T05:23:45;20.50;99.90
24011;DHT22;12217;50.792;4.372;2022-08-18T05:26:12;20.50;99.90
24011;DHT22;12217;50.792;4.372;2022-08-18T05:28:40;20.50;99.90
24011;DHT22;12217;50.792;4.372;2022-08-18T05:31:12;20.60;99.90
24011;DHT22;12217;50.792;4.372;2022-08-18T05:33:39;20.60;99.90
24011;DHT22;12217;50.792;4.372;2022-08-18T05:36:16;20.70;99.90
24011;DHT22;12217;50.792;4.372;2022-08-18T05:39:02;20.70;99.90
24011;DHT22;12217;50.792;4.372;2022-08-18T05:41:37;20.60;99.90
24011;DHT22;12217;50.792;4.372;2022-08-18T05:44:03;20.70;99.90
24011;DHT22;12217;50.792;4.372;2022-08-18T05:46:39;20.80;99.90
24011;DHT22;12217;50.792;4.372;2022-08-18T05:49:06;20.80;99.90
24011;DHT22;12217;50.792;4.372;2022-08-18T05:51:38;20.80;99.90
24011;DHT22;12217;50.792;4.372;2022-08-18T05:54:06;20.90;99.90
24011;DHT22;12217;50.792;4.372;2022-08-18T05:56:54;21.00;99.90
24011;DHT22;12217;50.792;4.372;2022-08-18T05:59:29;21.00;99.90
24011;DHT22;12217;50.792;4.372;2022-08-18T06:02:32;21.00;99.90
24011;DHT22;12217;50.792;4.372;2022-08-18T06:05:06;20.90;99.90
24011;DHT22;12217;50.792;4.372;2022-08-18T06:10:45;21.00;99.90
24011;DHT22;12217;50.792;4.372;2022-08-18T06:13:11;21.00;99.90
24011;DHT22;12217;50.792;4.372;2022-08-18T06:37:40;21.00;99.90
24011;DHT22;12217;50.792;4.372;2022-08-18T06:40:27;20.90;99.90
24011;DHT22;12217;50.792;4.372;2022-08-18T06:42:52;20.90;99.90
24011;DHT22;12217;50.792;4.372;2022-08-18T06:45:25;21.00;99.90
24011;DHT22;12217;50.792;4.372;2022-08-18T06:48:03;20.80;99.90
24011;DHT22;12217;50.792;4.372;2022-08-18T06:53:14;20.80;99.90
24011;DHT22;12217;50.792;4.372;2022-08-18T07:01:05;21.10;99.90
24011;DHT22;12217;50.792;4.372;2022-08-18T07:11:21;21.40;99.90
24011;DHT22;12217;50.792;4.372;2022-08-18T07:13:53;21.30;99.90
24011;DHT22;12217;50.792;4.372;2022-08-18T07:16:31;21.20;99.90
24011;DHT22;12217;50.792;4.372;2022-08-18T07:19:07;21.20;99.90
24011;DHT22;12217;50.792;4.372;2022-08-18T07:21:35;21.30;99.90
24011;DHT22;12217;50.792;4.372;2022-08-18T07:24:11;21.30;99.90
24011;DHT22;12217;50.792;4.372;2022-08-18T07:29:36;21.20;99.90
24011;DHT22;12217;50.792;4.372;2022-08-18T07:32:13;21.40;99.90
24011;DHT22;12217;50.792;4.372;2022-08-18T07:34:49;21.60;99.90
24011;DHT22;12217;50.792;4.372;2022-08-18T07:43:02;21.90;99.90
24011;DHT22;12217;50.792;4.372;2022-08-18T07:45:38;21.90;99.90
24011;DHT22;12217;50.792;4.372;2022-08-18T07:48:22;22.00;99.90
24011;DHT22;12217;50.792;4.372;2022-08-18T07:56:27;22.30;99.90
24011;DHT22;12217;50.792;4.372;2022-08-18T07:59:11;22.50;99.90
24011;DHT22;12217;50.792;4.372;2022-08-18T08:04:43;22.90;99.90
24011;DHT22;12217;50.792;4.372;2022-08-18T08:07:23;23.00;99.90
24011;DHT22;12217;50.792;4.372;2022-08-18T08:16:00;22.80;99.90
24011;DHT22;12217;50.792;4.372;2022-08-18T08:18:47;22.90;99.90
24011;DHT22;12217;50.792;4.372;2022-08-18T08:21:17;23.10;99.90
24011;DHT22;12217;50.792;4.372;2022-08-18T08:32:25;23.80;99.90
24011;DHT22;12217;50.792;4.372;2022-08-18T08:34:58;24.00;99.90
24011;DHT22;12217;50.792;4.372;2022-08-18T08:37:27;24.20;99.90
24011;DHT22;12217;50.792;4.372;2022-08-18T08:40:14;24.20;99.90
24011;DHT22;12217;50.792;4.372;2022-08-18T08:42:55;24.50;99.90
24011;DHT22;12217;50.792;4.372;2022-08-18T08:45:29;24.50;99.90
24011;DHT22;12217;50.792;4.372;2022-08-18T08:48:01;24.50;99.90
24011;DHT22;12217;50.792;4.372;2022-08-18T08:50:32;24.60;99.90
24011;DHT22;12217;50.792;4.372;2022-08-18T08:52:59;24.80;99.90
24011;DHT22;12217;50.792;4.372;2022-08-18T08:55:42;24.80;99.90
24011;DHT22;12217;50.792;4.372;2022-08-18T09:00:54;25.10;99.90
24011;DHT22;12217;50.792;4.372;2022-08-18T09:06:07;25.20;99.90
24011;DHT22;12217;50.792;4.372;2022-08-18T09:11:52;25.80;99.90
24011;DHT22;12217;50.792;4.372;2022-08-18T09:26:37;26.50;99.90
24011;DHT22;12217;50.792;4.372;2022-08-18T09:38:20;26.70;99.90
24011;DHT22;12217;50.792;4.372;2022-08-18T09:41:11;27.00;99.90
24011;DHT22;12217;50.792;4.372;2022-08-18T09:51:57;27.50;99.90
24011;DHT22;12217;50.792;4.372;2022-08-18T09:54:29;27.40;99.90
24011;DHT22;12217;50.792;4.372;2022-08-18T09:57:15;27.30;99.90
24011;DHT22;12217;50.792;4.372;2022-08-18T10:07:53;27.50;99.90
24011;DHT22;12217;50.792;4.372;2022-08-18T10:19:24;28.00;99.90
24011;DHT22;12217;50.792;4.372;2022-08-18T10:30:04;27.50;99.90
24011;DHT22;12217;50.792;4.372;2022-08-18T10:32:41;27.40;99.90
24011;DHT22;12217;50.792;4.372;2022-08-18T10:40:35;27.30;99.90
24011;DHT22;12217;50.792;4.372;2022-08-18T10:43:25;26.90;99.90
24011;DHT22;12217;50.792;4.372;2022-08-18T10:46:04;26.70;99.90
24011;DHT22;12217;50.792;4.372;2022-08-18T10:48:39;26.60;99.90
24011;DHT22;12217;50.792;4.372;2022-08-18T10:51:19;26.60;99.90
24011;DHT22;12217;50.792;4.372;2022-08-18T10:54:03;26.80;99.90
24011;DHT22;12217;50.792;4.372;2022-08-18T10:56:40;27.00;99.90
24011;DHT22;12217;50.792;4.372;2022-08-18T10:59:26;27.10;99.90
24011;DHT22;12217;50.792;4.372;2022-08-18T11:04:36;27.10;99.90
24011;DHT22;12217;50.792;4.372;2022-08-18T11:07:16;27.10;99.90
24011;DHT22;12217;50.792;4.372;2022-08-18T11:09:49;27.30;99.90
24011;DHT22;12217;50.792;4.372;2022-08-18T11:12:45;27.50;99.90
24011;DHT22;12217;50.792;4.372;2022-08-18T11:21:32;27.90;99.90
24011;DHT22;12217;50.792;4.372;2022-08-18T11:24:21;27.70;99.90
24011;DHT22;12217;50.792;4.372;2022-08-18T11:26:53;27.80;99.90
24011;DHT22;12217;50.792;4.372;2022-08-18T11:29:36;27.60;99.90
24011;DHT22;12217;50.792;4.372;2022-08-18T11:34:52;27.60;99.90
24011;DHT22;12217;50.792;4.372;2022-08-18T11:37:52;27.60;99.90
24011;DHT22;12217;50.792;4.372;2022-08-18T11:40:25;27.80;99.90
24011;DHT22;12217;50.792;4.372;2022-08-18T11:42:57;28.30;99.90
24011;DHT22;12217;50.792;4.372;2022-08-18T11:45:25;28.60;99.90
24011;DHT22;12217;50.792;4.372;2022-08-18T11:53:53;29.10;99.90
24011;DHT22;12217;50.792;4.372;2022-08-18T11:58:57;29.00;99.90
24011;DHT22;12217;50.792;4.372;2022-08-18T12:12:18;28.60;99.90
24011;DHT22;12217;50.792;4.372;2022-08-18T12:17:24;28.40;99.90
24011;DHT22;12217;50.792;4.372;2022-08-18T12:19:50;28.30;99.90
24011;DHT22;12217;50.792;4.372;2022-08-18T12:22:26;28.30;99.90
24011;DHT22;12217;50.792;4.372;2022-08-18T12:24:52;28.70;99.90
24011;DHT22;12217;50.792;4.372;2022-08-18T12:27:23;29.00;99.90
24011;DHT22;12217;50.792;4.372;2022-08-18T12:29:50;29.40;99.90
24011;DHT22;12217;50.792;4.372;2022-08-18T12:32:18;29.70;99.90
24011;DHT22;12217;50.792;4.372;2022-08-18T12:34:44;29.80;99.90
24011;DHT22;12217;50.792;4.372;2022-08-18T12:37:15;30.00;99.90
24011;DHT22;12217;50.792;4.372;2022-08-18T12:39:41;29.90;99.90
24011;DHT22;12217;50.792;4.372;2022-08-18T12:42:07;29.90;99.90
24011;DHT22;12217;50.792;4.372;2022-08-18T12:44:33;30.20;99.90
24011;DHT22;12217;50.792;4.372;2022-08-18T12:47:00;30.10;99.90
24011;DHT22;12217;50.792;4.372;2022-08-18T12:49:26;30.30;99.90
24011;DHT22;12217;50.792;4.372;2022-08-18T12:51:52;30.40;99.90
24011;DHT22;12217;50.792;4.372;2022-08-18T12:54:20;30.60;99.90
24011;DHT22;12217;50.792;4.372;2022-08-18T12:56:48;30.60;99.90
24011;DHT22;12217;50.792;4.372;2022-08-18T12:59:15;30.40;99.90
24011;DHT22;12217;50.792;4.372;2022-08-18T13:01:41;30.60;99.90
24011;DHT22;12217;50.792;4.372;2022-08-18T13:04:07;30.30;99.90
24011;DHT22;12217;50.792;4.372;2022-08-18T13:06:36;30.20;99.90
24011;DHT22;12217;50.792;4.372;2022-08-18T13:09:03;30.20;99.90
24011;DHT22;12217;50.792;4.372;2022-08-18T13:11:29;29.80;99.90
24011;DHT22;12217;50.792;4.372;2022-08-18T13:13:55;29.70;99.90
24011;DHT22;12217;50.792;4.372;2022-08-18T13:16:21;29.60;99.90
24011;DHT22;12217;50.792;4.372;2022-08-18T13:18:47;29.60;99.90
24011;DHT22;12217;50.792;4.372;2022-08-18T13:21:15;29.80;99.90
24011;DHT22;12217;50.792;4.372;2022-08-18T13:23:41;29.70;99.90
24011;DHT22;12217;50.792;4.372;2022-08-18T13:26:10;29.70;99.90
24011;DHT22;12217;50.792;4.372;2022-08-18T13:28:36;29.50;99.60
24011;DHT22;12217;50.792;4.372;2022-08-18T13:31:03;29.30;99.90
24011;DHT22;12217;50.792;4.372;2022-08-18T13:33:29;29.20;99.90
24011;DHT22;12217;50.792;4.372;2022-08-18T13:35:57;29.30;99.90
24011;DHT22;12217;50.792;4.372;2022-08-18T13:38:23;29.60;99.90
24011;DHT22;12217;50.792;4.372;2022-08-18T13:40:50;29.70;99.40
24011;DHT22;12217;50.792;4.372;2022-08-18T13:43:19;29.90;99.90
24011;DHT22;12217;50.792;4.372;2022-08-18T13:45:46;30.10;99.90
24011;DHT22;12217;50.792;4.372;2022-08-18T13:48:15;30.40;99.20
24011;DHT22;12217;50.792;4.372;2022-08-18T13:50:41;30.20;98.80
24011;DHT22;12217;50.792;4.372;2022-08-18T13:53:13;30.40;99.60
24011;DHT22;12217;50.792;4.372;2022-08-18T13:55:39;30.60;99.90
24011;DHT22;12217;50.792;4.372;2022-08-18T13:58:05;31.00;99.00
24011;DHT22;12217;50.792;4.372;2022-08-18T14:00:32;31.10;98.20
24011;DHT22;12217;50.792;4.372;2022-08-18T14:02:58;31.30;98.10
24011;DHT22;12217;50.792;4.372;2022-08-18T14:05:25;31.20;97.00
24011;DHT22;12217;50.792;4.372;2022-08-18T14:07:53;31.00;97.50
24011;DHT22;12217;50.792;4.372;2022-08-18T14:10:19;30.80;97.10
24011;DHT22;12217;50.792;4.372;2022-08-18T14:12:45;30.60;97.80
24011;DHT22;12217;50.792;4.372;2022-08-18T14:15:13;30.40;97.80
24011;DHT22;12217;50.792;4.372;2022-08-18T14:17:40;30.30;97.70
24011;DHT22;12217;50.792;4.372;2022-08-18T14:20:07;30.20;97.90
24011;DHT22;12217;50.792;4.372;2022-08-18T14:22:53;30.40;97.70
24011;DHT22;12217;50.792;4.372;2022-08-18T14:25:38;30.30;96.70
24011;DHT22;12217;50.792;4.372;2022-08-18T14:28:23;30.60;96.40
24011;DHT22;12217;50.792;4.372;2022-08-18T14:30:52;30.60;96.20
24011;DHT22;12217;50.792;4.372;2022-08-18T14:33:30;30.90;95.70
24011;DHT22;12217;50.792;4.372;2022-08-18T14:36:06;31.00;95.70
24011;DHT22;12217;50.792;4.372;2022-08-18T14:38:32;31.20;95.70
24011;DHT22;12217;50.792;4.372;2022-08-18T14:41:00;31.30;95.50
24011;DHT22;12217;50.792;4.372;2022-08-18T14:43:26;31.40;95.10
24011;DHT22;12217;50.792;4.372;2022-08-18T14:45:52;31.30;95.10
24011;DHT22;12217;50.792;4.372;2022-08-18T14:48:20;31.40;94.80
24011;DHT22;12217;50.792;4.372;2022-08-18T14:50:53;31.30;94.90
24011;DHT22;12217;50.792;4.372;2022-08-18T14:53:23;31.20;95.00
24011;DHT22;12217;50.792;4.372;2022-08-18T14:55:52;31.00;95.40
24011;DHT22;12217;50.792;4.372;2022-08-18T14:58:26;30.90;95.20
24011;DHT22;12217;50.792;4.372;2022-08-18T15:01:02;30.90;95.70
24011;DHT22;12217;50.792;4.372;2022-08-18T15:03:31;30.70;96.20
24011;DHT22;12217;50.792;4.372;2022-08-18T15:05:59;30.80;96.30
24011;DHT22;12217;50.792;4.372;2022-08-18T15:08:26;30.50;96.80
24011;DHT22;12217;50.792;4.372;2022-08-18T15:10:53;30.50;97.00
24011;DHT22;12217;50.792;4.372;2022-08-18T15:13:23;30.50;97.70
24011;DHT22;12217;50.792;4.372;2022-08-18T15:15:50;30.50;97.70
24011;DHT22;12217;50.792;4.372;2022-08-18T15:18:16;30.50;97.60
24011;DHT22;12217;50.792;4.372;2022-08-18T15:20:44;30.30;97.80
24011;DHT22;12217;50.792;4.372;2022-08-18T15:23:28;30.20;98.30
24011;DHT22;12217;50.792;4.372;2022-08-18T15:26:18;30.10;98.90
24011;DHT22;12217;50.792;4.372;2022-08-18T15:28:46;29.90;99.00
24011;DHT22;12217;50.792;4.372;2022-08-18T15:31:12;29.80;99.00
24011;DHT22;12217;50.792;4.372;2022-08-18T15:33:37;29.80;99.20
24011;DHT22;12217;50.792;4.372;2022-08-18T15:36:06;29.80;99.20
24011;DHT22;12217;50.792;4.372;2022-08-18T15:38:32;29.70;99.50
24011;DHT22;12217;50.792;4.372;2022-08-18T15:40:59;29.60;99.50
24011;DHT22;12217;50.792;4.372;2022-08-18T15:43:27;29.40;99.60
24011;DHT22;12217;50.792;4.372;2022-08-18T15:45:55;29.20;99.90
24011;DHT22;12217;50.792;4.372;2022-08-18T15:48:23;29.40;99.80
24011;DHT22;12217;50.792;4.372;2022-08-18T15:50:49;29.40;99.50
24011;DHT22;12217;50.792;4.372;2022-08-18T15:53:18;29.30;99.60
24011;DHT22;12217;50.792;4.372;2022-08-18T15:55:45;29.30;99.70
24011;DHT22;12217;50.792;4.372;2022-08-18T15:58:12;29.30;99.90
24011;DHT22;12217;50.792;4.372;2022-08-18T16:00:41;29.30;99.90
24011;DHT22;12217;50.792;4.372;2022-08-18T16:03:09;29.20;99.90
24011;DHT22;12217;50.792;4.372;2022-08-18T16:05:45;29.20;99.90
24011;DHT22;12217;50.792;4.372;2022-08-18T16:08:12;29.20;99.90
24011;DHT22;12217;50.792;4.372;2022-08-18T16:10:39;29.30;99.90
24011;DHT22;12217;50.792;4.372;2022-08-18T16:13:07;29.30;99.80
24011;DHT22;12217;50.792;4.372;2022-08-18T16:15:38;29.30;99.90
24011;DHT22;12217;50.792;4.372;2022-08-18T16:18:08;29.20;99.90
24011;DHT22;12217;50.792;4.372;2022-08-18T16:20:35;29.40;99.90
24011;DHT22;12217;50.792;4.372;2022-08-18T16:23:04;29.40;99.90
24011;DHT22;12217;50.792;4.372;2022-08-18T16:25:30;29.40;99.90
24011;DHT22;12217;50.792;4.372;2022-08-18T16:27:57;29.60;99.90
24011;DHT22;12217;50.792;4.372;2022-08-18T16:30:26;29.70;99.90
24011;DHT22;12217;50.792;4.372;2022-08-18T16:32:52;29.80;99.90
24011;DHT22;12217;50.792;4.372;2022-08-18T16:35:18;29.80;99.90
24011;DHT22;12217;50.792;4.372;2022-08-18T16:37:45;29.90;99.90
24011;DHT22;12217;50.792;4.372;2022-08-18T16:40:13;29.90;99.60
24011;DHT22;12217;50.792;4.372;2022-08-18T16:42:39;29.70;99.30
24011;DHT22;12217;50.792;4.372;2022-08-18T16:45:05;29.60;99.40
24011;DHT22;12217;50.792;4.372;2022-08-18T16:47:32;29.60;99.20
24011;DHT22;12217;50.792;4.372;2022-08-18T16:50:02;29.60;99.40
24011;DHT22;12217;50.792;4.372;2022-08-18T16:52:32;29.50;99.30
24011;DHT22;12217;50.792;4.372;2022-08-18T16:54:59;29.60;99.10
24011;DHT22;12217;50.792;4.372;2022-08-18T16:57:25;29.70;98.90
24011;DHT22;12217;50.792;4.372;2022-08-18T17:00:10;29.50;98.60
24011;DHT22;12217;50.792;4.372;2022-08-18T17:02:55;29.30;99.10
24011;DHT22;12217;50.792;4.372;2022-08-18T17:05:39;29.10;99.30
24011;DHT22;12217;50.792;4.372;2022-08-18T17:08:04;29.30;98.80
24011;DHT22;12217;50.792;4.372;2022-08-18T17:10:30;29.20;98.50
24011;DHT22;12217;50.792;4.372;2022-08-18T17:13:03;29.00;98.90
24011;DHT22;12217;50.792;4.372;2022-08-18T17:15:29;28.90;99.00
24011;DHT22;12217;50.792;4.372;2022-08-18T17:17:55;28.90;99.30
24011;DHT22;12217;50.792;4.372;2022-08-18T17:20:21;28.90;99.20
24011;DHT22;12217;50.792;4.372;2022-08-18T17:22:47;28.90;98.90
24011;DHT22;12217;50.792;4.372;2022-08-18T17:25:15;28.90;99.00
24011;DHT22;12217;50.792;4.372;2022-08-18T17:27:45;28.90;99.00
24011;DHT22;12217;50.792;4.372;2022-08-18T17:30:15;28.90;98.70
24011;DHT22;12217;50.792;4.372;2022-08-18T17:32:55;28.90;98.60
24011;DHT22;12217;50.792;4.372;2022-08-18T17:35:33;28.80;99.20
24011;DHT22;12217;50.792;4.372;2022-08-18T17:40:47;28.60;99.50
24011;DHT22;12217;50.792;4.372;2022-08-18T17:43:17;28.60;99.70
24011;DHT22;12217;50.792;4.372;2022-08-18T17:45:54;28.60;99.60
24011;DHT22;12217;50.792;4.372;2022-08-18T17:50:55;28.30;99.90
24011;DHT22;12217;50.792;4.372;2022-08-18T17:53:41;28.20;99.90
24011;DHT22;12217;50.792;4.372;2022-08-18T17:58:45;28.20;99.90
24011;DHT22;12217;50.792;4.372;2022-08-18T18:01:14;28.20;99.90
24011;DHT22;12217;50.792;4.372;2022-08-18T18:03:42;28.20;99.90
24011;DHT22;12217;50.792;4.372;2022-08-18T18:09:28;28.00;99.90
24011;DHT22;12217;50.792;4.372;2022-08-18T18:11:53;27.90;99.90
24011;DHT22;12217;50.792;4.372;2022-08-18T18:22:47;27.80;99.90
24011;DHT22;12217;50.792;4.372;2022-08-18T18:25:29;27.70;99.90
24011;DHT22;12217;50.792;4.372;2022-08-18T18:27:56;27.60;99.90
24011;DHT22;12217;50.792;4.372;2022-08-18T18:30:23;27.50;99.90
24011;DHT22;12217;50.792;4.372;2022-08-18T18:32:56;27.40;99.90
24011;DHT22;12217;50.792;4.372;2022-08-18T18:35:29;27.40;99.90
24011;DHT22;12217;50.792;4.372;2022-08-18T18:38:04;27.40;99.90
24011;DHT22;12217;50.792;4.372;2022-08-18T18:40:32;27.20;99.90
24011;DHT22;12217;50.792;4.372;2022-08-18T18:43:21;27.10;99.90
24011;DHT22;12217;50.792;4.372;2022-08-18T18:51:33;27.00;99.90
24011;DHT22;12217;50.792;4.372;2022-08-18T18:54:20;26.90;99.90
24011;DHT22;12217;50.792;4.372;2022-08-18T18:56:52;26.80;99.90
24011;DHT22;12217;50.792;4.372;2022-08-18T19:02:30;26.70;99.90
24011;DHT22;12217;50.792;4.372;2022-08-18T19:10:19;26.50;99.90
24011;DHT22;12217;50.792;4.372;2022-08-18T19:12:52;26.50;99.90
24011;DHT22;12217;50.792;4.372;2022-08-18T19:15:20;26.40;99.90
24011;DHT22;12217;50.792;4.372;2022-08-18T19:20:24;26.20;99.90
24011;DHT22;12217;50.792;4.372;2022-08-18T19:25:56;26.10;99.90